| time (UTC) | temp C | wind direction | speed KPH | gust KPH | rain 1hr cm | rain 24hr cm | rain mn cm | humidity % | barometer mb |
| 20260507141916 | 18 | 298 | 11.3 | 20.9 | 0.00 | 0.00 | 0.00 | 68 | 1011.6 |
| 20260507140415 | 19 | 34 | 8.0 | 17.7 | 0.00 | 0.00 | 0.00 | 68 | 1011.7 |
| 20260507134914 | 18 | 341 | 12.9 | 19.3 | 0.00 | 0.00 | 0.00 | 68 | 1011.8 |
| 20260507133413 | 19 | 321 | 11.3 | 20.9 | 0.00 | 0.00 | 0.00 | 67 | 1011.9 |
| 20260507131912 | 18 | 206 | 12.9 | 27.4 | 0.00 | 0.00 | 0.00 | 68 | 1012.0 |
| 20260507130411 | 18 | 299 | 12.9 | 25.7 | 0.00 | 0.00 | 0.00 | 68 | 1012.0 |
| 20260507124910 | 18 | 301 | 14.5 | 22.5 | 0.00 | 0.00 | 0.00 | 68 | 1012.2 |
| 20260507123410 | 18 | 310 | 14.5 | 24.1 | 0.00 | 0.00 | 0.00 | 68 | 1012.2 |
| 20260507121909 | 20 | 282 | 11.3 | 22.5 | 0.00 | 0.00 | 0.00 | 65 | 1012.3 |
| 20260507120408 | 20 | 277 | 6.4 | 19.3 | 0.00 | 0.00 | 0.00 | 64 | 1012.4 |
| 20260507114907 | 19 | 344 | 8.0 | 14.5 | 0.00 | 0.00 | 0.00 | 65 | 1012.4 |
| 20260507113406 | 18 | 281 | 9.7 | 17.7 | 0.00 | 0.00 | 0.00 | 67 | 1012.5 |
| 20260507111905 | 19 | 298 | 8.0 | 16.1 | 0.00 | 0.00 | 0.00 | 67 | 1012.9 |
| 20260507110404 | 18 | 277 | 6.4 | 14.5 | 0.00 | 0.00 | 0.00 | 67 | 1013.1 |
| 20260507104904 | 18 | 335 | 6.4 | 14.5 | 0.00 | 0.00 | 0.00 | 67 | 1013.2 |
| 20260507103403 | 18 | 216 | 6.4 | 16.1 | 0.00 | 0.00 | 0.00 | 67 | 1013.4 |
| 20260507101902 | 18 | 284 | 4.8 | 9.7 | 0.00 | 0.00 | 0.00 | 67 | 1013.5 |
| 20260507100401 | 17 | 341 | 6.4 | 16.1 | 0.00 | 0.00 | 0.00 | 66 | 1013.7 |
| 20260507094900 | 17 | 312 | 4.8 | 11.3 | 0.00 | 0.00 | 0.00 | 67 | 1013.6 |
| 20260507093359 | 17 | 271 | 6.4 | 12.9 | 0.00 | 0.00 | 0.00 | 67 | 1013.9 |
| 20260507091858 | 17 | 0 | 1.6 | 1.6 | 0.00 | 0.00 | 0.00 | 67 | 1013.9 |
| 20260507090358 | 17 | 18 | 3.2 | 12.9 | 0.00 | 0.00 | 0.00 | 66 | 1013.6 |
| 20260507084857 | 17 | 306 | 1.6 | 8.0 | 0.00 | 0.00 | 0.00 | 64 | 1013.7 |
| 20260507083356 | 16 | 261 | 3.2 | 9.7 | 0.00 | 0.00 | 0.00 | 62 | 1013.8 |
| 20260507081855 | 17 | 317 | 3.2 | 9.7 | 0.00 | 0.00 | 0.00 | 63 | 1013.8 |
| 20260507080354 | 16 | 109 | 0.0 | 3.2 | 0.00 | 0.00 | 0.00 | 64 | 1014.0 |
| 20260507074853 | 15 | 217 | 1.6 | 4.8 | 0.00 | 0.00 | 0.00 | 62 | 1014.2 |
| 20260507073353 | 14 | 198 | 1.6 | 9.7 | 0.00 | 0.00 | 0.00 | 58 | 1014.2 |
| 20260507071852 | 13 | 198 | 3.2 | 9.7 | 0.00 | 0.00 | 0.00 | 56 | 1014.1 |
| 20260507070351 | 12 | 210 | 4.8 | 12.9 | 0.00 | 0.00 | 0.00 | 56 | 1014.1 |
| 20260507064850 | 12 | 217 | 6.4 | 16.1 | 0.00 | 0.00 | 0.00 | 58 | 1014.0 |
| 20260507063349 | 13 | 176 | 4.8 | 11.3 | 0.00 | 0.00 | 0.00 | 57 | 1013.8 |
| 20260507061848 | 13 | 198 | 4.8 | 12.9 | 0.00 | 0.00 | 0.00 | 57 | 1013.6 |
| 20260507060347 | 13 | 185 | 1.6 | 3.2 | 0.00 | 0.00 | 0.00 | 54 | 1013.5 |
| 20260507054847 | 12 | 175 | 3.2 | 11.3 | 0.00 | 0.00 | 0.00 | 50 | 1013.5 |
| 20260507053346 | 12 | 194 | 3.2 | 11.3 | 0.00 | 0.00 | 0.00 | 48 | 1013.4 |
| 20260507051845 | 11 | 172 | 3.2 | 12.9 | 0.00 | 0.00 | 0.00 | 46 | 1013.2 |
| 20260507050344 | 11 | 186 | 1.6 | 8.0 | 0.00 | 0.00 | 0.00 | 46 | 1013.1 |
| 20260507044843 | 10 | 257 | 0.0 | 3.2 | 0.00 | 0.00 | 0.00 | 49 | 1013.1 |
| 20260507043342 | 10 | 257 | 0.0 | 0.0 | 0.00 | 0.00 | 0.00 | 49 | 1013.1 |
| 20260507041841 | 11 | 260 | 0.0 | 1.6 | 0.00 | 0.00 | 0.00 | 48 | 1013.1 |
| 20260507040341 | 11 | 261 | 0.0 | 0.0 | 0.00 | 0.00 | 0.00 | 48 | 1013.1 |
| 20260507034840 | 11 | 261 | 0.0 | 1.6 | 0.00 | 0.00 | 0.00 | 46 | 1013.1 |
| 20260507033339 | 11 | 261 | 0.0 | 4.8 | 0.00 | 0.00 | 0.00 | 46 | 1013.2 |
| 20260507031838 | 10 | 267 | 0.0 | 3.2 | 0.00 | 0.00 | 0.00 | 48 | 1013.2 |
| 20260507030337 | 10 | 271 | 0.0 | 0.0 | 0.00 | 0.00 | 0.00 | 50 | 1013.2 |
| 20260507024836 | 11 | 271 | 0.0 | 3.2 | 0.00 | 0.00 | 0.00 | 47 | 1013.1 |
| 20260507023335 | 11 | 275 | 0.0 | 6.4 | 0.00 | 0.00 | 0.00 | 49 | 1013.0 |
| 20260507021835 | 11 | 283 | 0.0 | 1.6 | 0.00 | 0.00 | 0.00 | 50 | 1013.0 |
| 20260507020334 | 11 | 283 | 0.0 | 1.6 | 0.00 | 0.00 | 0.00 | 48 | 1013.0 |
| 20260507014833 | 11 | 283 | 0.0 | 3.2 | 0.00 | 0.00 | 0.00 | 50 | 1013.2 |
| 20260507013332 | 11 | 283 | 0.0 | 0.0 | 0.00 | 0.00 | 0.00 | 54 | 1013.2 |
| 20260507011831 | 11 | 283 | 0.0 | 0.0 | 0.00 | 0.00 | 0.00 | 52 | 1013.1 |
| 20260507010330 | 11 | 283 | 0.0 | 0.0 | 0.00 | 0.00 | 0.00 | 52 | 1013.2 |
| 20260507004829 | 11 | 283 | 0.0 | 0.0 | 0.00 | 0.00 | 0.00 | 53 | 1013.5 |
| 20260507003329 | 12 | 283 | 0.0 | 0.0 | 0.00 | 0.00 | 0.00 | 52 | 1013.5 |
| 20260507001828 | 12 | 283 | 0.0 | 3.2 | 0.00 | 0.00 | 0.00 | 52 | 1013.6 |
| 20260507000328 | 12 | 283 | 0.0 | 0.0 | 0.00 | 0.00 | 0.00 | 53 | 1013.6 |
| 20260506234826 | 12 | 283 | 0.0 | 0.0 | 0.00 | 0.00 | 0.00 | 55 | 1013.5 |
| 20260506233325 | 12 | 283 | 0.0 | 0.0 | 0.00 | 0.00 | 0.00 | 55 | 1013.6 |
| 20260506231824 | 12 | 283 | 0.0 | 3.2 | 0.00 | 0.00 | 0.00 | 56 | 1013.6 |
| 20260506230323 | 12 | 283 | 0.0 | 0.0 | 0.00 | 0.00 | 0.00 | 56 | 1013.6 |
| 20260506224823 | 12 | 283 | 0.0 | 3.2 | 0.00 | 0.00 | 0.00 | 57 | 1013.5 |
| 20260506223322 | 13 | 283 | 0.0 | 3.2 | 0.00 | 0.00 | 0.00 | 59 | 1013.5 |
| 20260506221821 | 13 | 283 | 0.0 | 1.6 | 0.00 | 0.00 | 0.00 | 59 | 1013.4 |
| 20260506220320 | 13 | 283 | 0.0 | 0.0 | 0.00 | 0.00 | 0.00 | 60 | 1013.4 |
| 20260506214819 | 13 | 283 | 0.0 | 1.6 | 0.00 | 0.00 | 0.00 | 61 | 1013.4 |
| 20260506213318 | 13 | 283 | 0.0 | 3.2 | 0.00 | 0.00 | 0.00 | 63 | 1013.3 |
| 20260506211818 | 14 | 283 | 0.0 | 0.0 | 0.00 | 0.00 | 0.00 | 64 | 1013.4 |
| 20260506210317 | 14 | 283 | 0.0 | 1.6 | 0.00 | 0.00 | 0.00 | 65 | 1013.2 |
| 20260506204816 | 15 | 283 | 0.0 | 1.6 | 0.00 | 0.00 | 0.00 | 66 | 1013.0 |
| 20260506203315 | 15 | 283 | 0.0 | 1.6 | 0.00 | 0.00 | 0.00 | 66 | 1012.8 |
| 20260506201814 | 15 | 283 | 3.2 | 6.4 | 0.00 | 0.00 | 0.00 | 65 | 1012.6 |
| 20260506200313 | 15 | 292 | 3.2 | 6.4 | 0.00 | 0.00 | 0.00 | 66 | 1012.4 |
| 20260506194812 | 15 | 300 | 1.6 | 6.4 | 0.00 | 0.00 | 0.00 | 66 | 1012.1 |
| 20260506193312 | 15 | 303 | 4.8 | 11.3 | 0.00 | 0.00 | 0.00 | 66 | 1011.8 |
| 20260506191811 | 16 | 309 | 4.8 | 11.3 | 0.00 | 0.00 | 0.00 | 67 | 1011.5 |
| 20260506190310 | 16 | 300 | 4.8 | 12.9 | 0.00 | 0.00 | 0.00 | 68 | 1011.4 |
| 20260506184809 | 16 | 298 | 6.4 | 17.7 | 0.00 | 0.00 | 0.00 | 67 | 1011.1 |
| 20260506183308 | 16 | 102 | 9.7 | 14.5 | 0.00 | 0.00 | 0.00 | 67 | 1010.9 |
| 20260506181807 | 17 | 288 | 9.7 | 20.9 | 0.00 | 0.00 | 0.00 | 67 | 1010.8 |
| 20260506180306 | 17 | 279 | 12.9 | 17.7 | 0.00 | 0.00 | 0.00 | 67 | 1010.4 |
| 20260506174806 | 17 | 302 | 11.3 | 14.5 | 0.00 | 0.00 | 0.00 | 66 | 1010.3 |
| 20260506173305 | 18 | 300 | 8.0 | 12.9 | 0.00 | 0.00 | 0.00 | 66 | 1010.2 |
| 20260506171804 | 18 | 260 | 6.4 | 12.9 | 0.00 | 0.00 | 0.00 | 65 | 1010.0 |
| 20260506170303 | 18 | 298 | 8.0 | 14.5 | 0.00 | 0.00 | 0.00 | 65 | 1009.9 |
| 20260506164802 | 18 | 296 | 9.7 | 19.3 | 0.00 | 0.03 | 0.00 | 65 | 1009.8 |
| 20260506163301 | 18 | 297 | 9.7 | 20.9 | 0.00 | 0.03 | 0.00 | 65 | 1009.8 |
| 20260506161800 | 18 | 298 | 16.1 | 22.5 | 0.00 | 0.03 | 0.00 | 64 | 1009.6 |
| 20260506160300 | 20 | 335 | 11.3 | 22.5 | 0.00 | 0.03 | 0.00 | 58 | 1009.5 |
| 20260506154759 | 22 | 0 | 0.0 | 3.2 | 0.00 | 0.20 | 0.00 | 48 | 1009.4 |
| 20260506153258 | 22 | 33 | 3.2 | 9.7 | 0.00 | 0.20 | 0.00 | 47 | 1009.5 |
| 20260506151757 | 23 | 93 | 3.2 | 11.3 | 0.00 | 0.20 | 0.00 | 47 | 1009.6 |
| 20260506150302 | 23 | 75 | 1.6 | 6.4 | 0.00 | 0.20 | 0.00 | 47 | 1009.8 |
| 20260506144755 | 22 | 107 | 3.2 | 9.7 | 0.00 | 0.23 | 0.00 | 48 | 1009.8 |
| 20260506143254 | 22 | 10 | 1.6 | 6.4 | 0.00 | 0.23 | 0.00 | 46 | 1009.9 |